createdAt,value
2023-01-25T00:00:13.301Z,17.75
2023-01-25T00:03:01.824Z,19.13
2023-01-25T00:05:30.127Z,17.55
2023-01-25T00:08:06.735Z,17.55
2023-01-25T00:10:35.213Z,19.48
2023-01-25T00:13:09.189Z,19.13
2023-01-25T00:15:37.491Z,19.45
2023-01-25T00:18:09.445Z,19.33
2023-01-25T00:20:38.092Z,17.75
2023-01-25T00:23:06.782Z,18.08
2023-01-25T00:25:35.322Z,16.30
2023-01-25T00:28:04.094Z,20.20
2023-01-25T06:13:11.908Z,23.95
2023-01-25T06:15:43.449Z,24.55
2023-01-25T06:18:32.096Z,24.30
2023-01-25T06:27:48.439Z,21.92
2023-01-25T06:30:17.291Z,20.85
2023-01-25T06:32:45.595Z,19.98
2023-01-25T06:35:14.021Z,22.23
2023-01-25T06:37:42.346Z,21.85
2023-01-25T06:40:11.340Z,22.02
2023-01-25T06:42:39.336Z,23.65
2023-01-25T06:45:08.601Z,23.73
2023-01-25T06:47:38.132Z,22.98
2023-01-25T06:50:07.579Z,23.63
2023-01-25T06:52:38.791Z,37.97
2023-01-25T06:55:10.357Z,60.50
2023-01-25T06:57:38.771Z,53.25
2023-01-25T07:00:07.929Z,50.15
2023-01-25T07:02:37.296Z,28.83
2023-01-25T07:05:06.247Z,26.23
2023-01-25T07:15:34.202Z,29.20
2023-01-25T07:18:15.878Z,24.48
2023-01-25T07:20:48.976Z,26.65
2023-01-25T07:23:18.351Z,26.58
2023-01-25T07:25:49.101Z,23.95
2023-01-25T07:28:18.430Z,23.25
2023-01-25T07:30:47.436Z,24.25
2023-01-25T07:33:17.851Z,26.80
2023-01-25T07:35:45.816Z,36.70
2023-01-25T07:38:14.891Z,41.92
2023-01-25T07:40:44.712Z,27.63
2023-01-25T07:43:15.745Z,69.18
2023-01-25T07:45:48.800Z,38.30
2023-01-25T07:48:19.788Z,51.75
2023-01-25T07:51:13.846Z,82.03
2023-01-25T07:53:46.745Z,93.20
2023-01-25T07:56:23.081Z,55.83
2023-01-25T07:58:57.038Z,46.55
2023-01-25T08:01:28.717Z,37.50
2023-01-25T08:03:57.795Z,35.72
2023-01-25T08:06:36.322Z,26.15
2023-01-25T08:09:13.102Z,25.90
2023-01-25T08:11:44.167Z,26.20
2023-01-25T08:14:27.089Z,25.83
2023-01-25T08:16:58.981Z,25.65
2023-01-25T08:19:32.840Z,28.70
2023-01-25T08:22:04.764Z,30.20
2023-01-25T08:27:19.012Z,29.23
2023-01-25T08:29:53.554Z,27.00
2023-01-25T08:32:24.041Z,29.08
2023-01-25T08:34:59.491Z,40.42
2023-01-25T08:37:30.848Z,39.20
2023-01-25T08:40:00.036Z,36.60
2023-01-25T08:42:30.404Z,42.88
2023-01-25T08:45:00.563Z,34.78
2023-01-25T08:47:30.365Z,29.80
2023-01-25T08:50:03.686Z,27.40
2023-01-25T08:52:32.514Z,27.73
2023-01-25T08:55:01.918Z,46.90
2023-01-25T08:57:51.119Z,89.70
2023-01-25T09:00:22.367Z,40.75
2023-01-25T09:02:52.734Z,90.57
2023-01-25T09:05:22.876Z,92.93
2023-01-25T09:07:59.627Z,84.80
2023-01-25T09:10:31.871Z,94.20
2023-01-25T09:13:02.076Z,63.67
2023-01-25T09:15:30.965Z,46.33
2023-01-25T09:18:08.467Z,41.50
2023-01-25T09:20:41.980Z,32.70
2023-01-25T09:23:11.064Z,34.38
2023-01-25T09:25:40.373Z,29.55
2023-01-25T09:28:11.798Z,30.83
2023-01-25T09:30:48.379Z,28.85
2023-01-25T09:33:32.259Z,28.08
2023-01-25T09:36:03.783Z,28.58
2023-01-25T09:38:39.811Z,29.13
2023-01-25T09:41:25.415Z,28.77
2023-01-25T09:44:16.284Z,29.50
2023-01-25T09:47:00.799Z,26.30
2023-01-25T09:49:54.593Z,34.13
2023-01-25T09:52:54.194Z,36.78
2023-01-25T09:55:28.517Z,28.80
2023-01-25T09:58:01.737Z,29.25
2023-01-25T10:00:47.503Z,30.02
2023-01-25T10:03:32.574Z,28.58
2023-01-25T10:06:03.255Z,30.40
2023-01-25T10:08:59.231Z,26.77
2023-01-25T10:11:30.518Z,24.65
2023-01-25T10:14:06.154Z,24.33
2023-01-25T10:16:47.860Z,25.60
2023-01-25T10:19:32.594Z,25.42
2023-01-25T10:22:04.616Z,30.63
2023-01-25T10:25:17.183Z,34.88
2023-01-25T10:28:31.390Z,36.50
2023-01-25T10:31:19.913Z,38.45
2023-01-25T10:33:53.426Z,28.17
2023-01-25T10:36:34.583Z,31.13
2023-01-25T10:39:07.967Z,35.88
2023-01-25T10:41:47.498Z,35.85
2023-01-25T10:44:36.209Z,34.80
2023-01-25T10:47:24.259Z,32.60
2023-01-25T10:49:59.070Z,26.63
2023-01-25T10:52:35.918Z,31.23
2023-01-25T10:55:20.396Z,31.40
2023-01-25T10:58:00.984Z,26.10
2023-01-25T11:00:41.587Z,24.63
2023-01-25T11:03:21.980Z,23.10
2023-01-25T11:06:00.819Z,20.88
2023-01-25T11:08:40.709Z,22.30
2023-01-25T11:11:40.569Z,22.35
2023-01-25T11:14:56.748Z,27.60
2023-01-25T11:17:30.468Z,35.40
2023-01-25T11:20:25.979Z,26.48
2023-01-25T11:22:58.023Z,25.25
2023-01-25T11:25:35.936Z,26.45
2023-01-25T11:28:19.571Z,55.65
2023-01-25T11:30:55.691Z,42.75
2023-01-25T11:33:34.129Z,30.42
2023-01-25T11:36:22.764Z,39.17
2023-01-25T11:39:21.698Z,35.65
2023-01-25T11:42:14.004Z,33.08
2023-01-25T11:45:01.119Z,27.50
2023-01-25T11:48:06.701Z,24.80
2023-01-25T11:51:10.601Z,30.17
2023-01-25T11:53:49.751Z,20.90
2023-01-25T11:56:37.719Z,36.72
2023-01-25T11:59:32.314Z,40.83
2023-01-25T12:02:37.684Z,19.23
2023-01-25T12:05:37.292Z,19.73
2023-01-25T12:08:08.439Z,19.13
2023-01-25T12:10:52.300Z,20.85
2023-01-25T12:13:22.586Z,19.00
2023-01-25T12:15:51.606Z,20.27
2023-01-25T12:18:35.692Z,20.75
2023-01-25T12:21:34.657Z,19.63
2023-01-25T12:24:03.642Z,20.88
2023-01-25T12:27:02.131Z,31.17
2023-01-25T12:30:01.250Z,26.80
2023-01-25T12:33:08.944Z,25.00
2023-01-25T12:36:33.948Z,27.58
2023-01-25T12:40:07.242Z,23.05
2023-01-25T12:43:00.713Z,23.23
2023-01-25T12:45:34.799Z,39.22
2023-01-25T12:48:18.576Z,60.08
2023-01-25T12:54:47.767Z,22.50
2023-01-25T12:57:38.940Z,39.97
2023-01-25T13:00:39.557Z,28.13
2023-01-25T13:03:30.563Z,22.65
2023-01-25T13:10:04.868Z,34.03
2023-01-25T13:13:01.160Z,44.50
2023-01-25T13:15:43.361Z,41.65
2023-01-25T13:18:28.202Z,37.83
2023-01-25T13:21:00.553Z,30.75
2023-01-25T13:23:46.093Z,22.38
2023-01-25T13:26:27.155Z,26.85
2023-01-25T13:29:05.022Z,22.95
2023-01-25T13:31:59.206Z,21.27
2023-01-25T13:34:42.403Z,23.33
2023-01-25T13:37:45.650Z,25.63
2023-01-25T13:40:35.983Z,22.83
2023-01-25T13:43:18.260Z,30.73
2023-01-25T13:45:52.437Z,34.92
2023-01-25T13:48:25.811Z,31.15
2023-01-25T13:51:22.554Z,25.60
2023-01-25T13:54:04.502Z,34.03
2023-01-25T13:56:41.884Z,49.00
2023-01-25T13:59:30.315Z,59.22
2023-01-25T14:02:03.814Z,54.75
2023-01-25T14:07:10.370Z,84.45
2023-01-25T14:09:47.921Z,87.53
2023-01-25T14:12:40.477Z,56.58
2023-01-25T14:15:34.891Z,45.90
2023-01-25T14:18:17.654Z,59.63
2023-01-25T14:20:53.704Z,33.22
2023-01-25T14:23:37.783Z,32.95
2023-01-25T14:26:28.399Z,33.13
2023-01-25T14:29:02.427Z,36.50
2023-01-25T14:31:37.697Z,33.60
2023-01-25T14:34:16.512Z,28.95
2023-01-25T14:37:16.676Z,40.35
2023-01-25T14:39:47.348Z,39.00
2023-01-25T14:42:22.216Z,34.58
2023-01-25T14:44:53.570Z,34.25
2023-01-25T14:48:07.766Z,31.58
2023-01-25T14:50:52.607Z,41.10
2023-01-25T14:53:27.255Z,30.02
2023-01-25T14:55:59.014Z,33.45
2023-01-25T14:58:34.814Z,35.83
2023-01-25T15:01:04.448Z,38.15
2023-01-25T15:03:33.222Z,44.17
2023-01-25T15:06:04.632Z,79.43
2023-01-25T15:08:41.017Z,71.55
2023-01-25T15:14:57.293Z,42.03
2023-01-25T15:17:43.298Z,56.15
2023-01-25T15:20:42.488Z,51.13
2023-01-25T15:23:23.641Z,62.08
2023-01-25T15:26:13.500Z,61.75
2023-01-25T15:28:43.596Z,51.25
2023-01-25T15:31:31.091Z,47.13
2023-01-25T15:34:01.932Z,62.47
2023-01-25T15:36:40.892Z,70.65
2023-01-25T15:39:40.686Z,88.35
2023-01-25T15:42:13.380Z,170.57
2023-01-25T15:44:44.824Z,74.32
2023-01-25T15:47:27.437Z,116.10
2023-01-25T15:50:00.339Z,97.97
2023-01-25T15:52:34.877Z,67.85
2023-01-25T15:55:07.899Z,68.30
2023-01-25T15:57:39.623Z,62.80
2023-01-25T16:00:33.444Z,62.33
2023-01-25T16:03:10.826Z,57.03
2023-01-25T16:05:40.913Z,55.78
2023-01-25T16:08:19.280Z,51.90
2023-01-25T16:10:48.845Z,41.97
2023-01-25T16:13:22.564Z,43.95
2023-01-25T16:15:53.471Z,56.20
2023-01-25T16:18:24.921Z,45.63
2023-01-25T16:20:55.297Z,47.95
2023-01-25T16:23:24.591Z,38.95
2023-01-25T16:25:53.676Z,40.38
2023-01-25T16:28:22.986Z,44.03
2023-01-25T16:30:53.239Z,51.10
2023-01-25T16:33:24.288Z,45.05
2023-01-25T16:36:17.907Z,36.55
2023-01-25T16:38:57.717Z,46.38
2023-01-25T16:41:31.632Z,55.10
2023-01-25T16:44:01.869Z,47.55
2023-01-25T16:46:30.541Z,42.45
2023-01-25T16:49:05.875Z,43.38
2023-01-25T16:51:34.722Z,40.35
2023-01-25T16:54:05.531Z,39.70
2023-01-25T16:56:41.571Z,46.40
2023-01-25T16:59:11.873Z,39.10
2023-01-25T17:01:45.854Z,42.20
2023-01-25T17:04:15.540Z,45.90
2023-01-25T17:06:51.597Z,59.55
2023-01-25T17:09:24.017Z,52.35
2023-01-25T17:11:54.410Z,47.95
2023-01-25T17:14:26.520Z,48.70
2023-01-25T17:16:57.772Z,46.55
2023-01-25T17:19:27.046Z,46.97
2023-01-25T17:22:02.026Z,71.03
2023-01-25T17:24:32.369Z,123.32
2023-01-25T17:27:01.971Z,96.05
2023-01-25T17:29:36.279Z,153.93
2023-01-25T17:32:05.534Z,98.80
2023-01-25T17:34:38.857Z,117.93
2023-01-25T17:37:16.943Z,111.72
2023-01-25T17:39:51.364Z,92.15
2023-01-25T17:42:22.260Z,87.07
2023-01-25T17:44:51.529Z,82.00
2023-01-25T17:47:19.881Z,60.97
2023-01-25T17:49:49.724Z,70.03
2023-01-25T17:52:18.913Z,59.72
2023-01-25T17:54:47.844Z,108.55
2023-01-25T17:57:23.988Z,62.95
2023-01-25T17:59:56.765Z,72.32
2023-01-25T18:02:25.551Z,84.82
2023-01-25T18:04:54.934Z,46.90
2023-01-25T18:07:23.223Z,47.28
2023-01-25T18:09:52.266Z,51.22
2023-01-25T18:12:21.135Z,55.63
2023-01-25T18:14:49.870Z,50.28
2023-01-25T18:17:18.259Z,54.40
2023-01-25T18:19:49.119Z,52.58
2023-01-25T18:22:19.211Z,51.17
2023-01-25T18:24:48.959Z,60.97
2023-01-25T18:27:24.772Z,49.50
2023-01-25T18:30:02.167Z,56.42
2023-01-25T18:32:40.692Z,79.47
2023-01-25T18:35:10.681Z,67.72
2023-01-25T18:37:55.277Z,53.92
2023-01-25T18:40:31.583Z,51.05
2023-01-25T18:43:10.159Z,56.15
2023-01-25T18:45:46.740Z,49.55
2023-01-25T18:48:26.731Z,52.22
2023-01-25T18:50:58.450Z,58.55
2023-01-25T18:53:30.713Z,47.30
2023-01-25T18:56:13.427Z,38.45
2023-01-25T18:58:46.173Z,46.67
2023-01-25T19:01:22.365Z,55.72
2023-01-25T19:03:51.832Z,58.35
2023-01-25T19:06:28.137Z,43.05
2023-01-25T19:09:04.711Z,38.25
2023-01-25T19:11:39.050Z,35.25
2023-01-25T19:14:10.543Z,40.45
2023-01-25T19:16:48.021Z,48.83
2023-01-25T19:22:18.854Z,43.03
2023-01-25T19:25:00.344Z,45.13
2023-01-25T19:27:30.509Z,42.60
2023-01-25T19:29:59.737Z,47.67
2023-01-25T19:32:50.965Z,43.67
2023-01-25T19:35:21.381Z,48.40
2023-01-25T19:37:55.966Z,78.50
2023-01-25T19:40:43.548Z,45.33
2023-01-25T19:45:45.489Z,62.05
2023-01-25T19:48:15.165Z,55.80
2023-01-25T19:53:30.744Z,51.95
2023-01-25T19:58:59.617Z,39.33
2023-01-25T20:01:31.839Z,38.65
2023-01-25T20:04:02.817Z,39.60
2023-01-25T20:06:31.645Z,38.95
2023-01-25T20:08:59.953Z,33.42
2023-01-25T20:11:32.174Z,34.45
2023-01-25T20:14:02.280Z,39.65
2023-01-25T20:16:33.405Z,40.42
2023-01-25T20:19:03.974Z,40.95
2023-01-25T20:21:33.907Z,57.40
2023-01-25T20:24:05.051Z,87.50
2023-01-25T20:26:43.535Z,59.45
2023-01-25T20:29:14.195Z,45.13
2023-01-25T20:31:45.786Z,44.15
2023-01-25T20:34:22.860Z,88.38
2023-01-25T20:36:52.493Z,67.25
2023-01-25T20:39:24.711Z,44.45
2023-01-25T20:41:54.193Z,48.63
2023-01-25T20:44:22.784Z,43.22
2023-01-25T20:46:52.204Z,43.53
2023-01-25T20:49:24.769Z,36.78
2023-01-25T20:51:55.068Z,33.85
2023-01-25T20:54:23.860Z,124.80
2023-01-25T20:56:54.984Z,114.10
2023-01-25T20:59:25.591Z,44.05
2023-01-25T21:01:58.576Z,49.28
2023-01-25T21:04:28.534Z,51.38
2023-01-25T21:06:57.765Z,91.80
2023-01-25T21:09:30.665Z,54.60
2023-01-25T21:11:59.921Z,37.45
2023-01-25T21:14:29.634Z,29.35
2023-01-25T21:17:00.041Z,31.10
2023-01-25T21:19:30.324Z,35.35
2023-01-25T21:21:59.977Z,40.10
2023-01-25T21:24:29.625Z,33.95
2023-01-25T21:27:02.692Z,37.10
2023-01-25T21:29:32.442Z,39.88
2023-01-25T21:32:01.361Z,43.78
2023-01-25T21:34:33.822Z,44.72
2023-01-25T21:37:06.429Z,64.35
2023-01-25T21:39:40.273Z,48.85
2023-01-25T21:42:09.646Z,31.92
2023-01-25T21:44:57.891Z,31.65
2023-01-25T21:47:32.721Z,36.45
2023-01-25T21:50:21.898Z,31.40
2023-01-25T21:52:50.999Z,35.03
2023-01-25T21:55:20.781Z,35.28
2023-01-25T21:57:50.393Z,34.80
2023-01-25T22:00:19.699Z,34.95
2023-01-25T22:02:52.777Z,31.52
2023-01-25T22:05:21.394Z,33.28
2023-01-25T22:07:50.360Z,32.28
2023-01-25T22:10:18.884Z,32.42
2023-01-25T22:12:51.780Z,31.65
2023-01-25T22:15:22.907Z,31.80
2023-01-25T22:17:52.622Z,33.78
2023-01-25T22:20:24.958Z,31.23
2023-01-25T22:22:54.208Z,32.50
2023-01-25T22:25:23.581Z,30.20
2023-01-25T22:28:00.188Z,32.80
2023-01-25T22:30:31.173Z,40.70
2023-01-25T22:33:00.846Z,34.88
2023-01-25T22:35:29.109Z,34.15
2023-01-25T22:37:59.486Z,34.63
2023-01-25T22:40:34.030Z,33.38
2023-01-25T22:43:03.972Z,32.83
2023-01-25T22:45:32.626Z,34.63
2023-01-25T22:48:01.454Z,32.47
2023-01-25T22:50:30.395Z,34.03
2023-01-25T22:52:59.521Z,31.55
2023-01-25T22:55:30.703Z,32.85
2023-01-25T22:57:59.753Z,33.47
2023-01-25T23:00:31.939Z,31.10
2023-01-25T23:03:01.065Z,32.25
2023-01-25T23:05:31.588Z,32.38
2023-01-25T23:08:00.844Z,34.05
2023-01-25T23:10:31.323Z,34.20
2023-01-25T23:13:00.717Z,35.88
2023-01-25T23:15:29.233Z,32.03
2023-01-25T23:18:17.556Z,33.92
2023-01-25T23:20:46.234Z,30.70
2023-01-25T23:23:16.127Z,31.25
2023-01-25T23:25:53.105Z,34.38
2023-01-25T23:28:23.460Z,33.22
2023-01-25T23:30:52.740Z,32.05
2023-01-25T23:33:22.182Z,33.08
2023-01-25T23:35:50.510Z,35.75
2023-01-25T23:38:22.690Z,38.33
2023-01-25T23:40:54.624Z,34.95
2023-01-25T23:43:25.158Z,32.55
2023-01-25T23:45:55.441Z,32.00
2023-01-25T23:48:29.254Z,31.55
2023-01-25T23:50:58.942Z,30.00
2023-01-25T23:53:32.915Z,29.33
2023-01-25T23:56:08.423Z,28.30
2023-01-25T23:58:47.633Z,29.10
